Time;durP1;ratioP1;P1;durP2;ratioP2;P2;SDS_P1;SDS_P2;PMS_P1;PMS_P2;Temp;Humidity;BMP_temperature;BMP_pressure;BME280_temperature;BME280_humidity;BME280_pressure;Samples;Min_cycle;Max_cycle;Signal;HPM_P1;HPM_P2
2022/01/26 00:06:43;;;;;;;;;46.50;38.50;;;;;;;;5123174;27;45293;-75
2022/01/26 00:09:08;;;;;;;;;39.00;34.50;;;;;;;;5105714;27;45502;-75
2022/01/26 00:11:34;;;;;;;;;39.75;36.25;;;;;;;;5120418;27;45303;-75
2022/01/26 00:14:01;;;;;;;;;44.00;37.25;;;;;;;;5118583;27;45735;-69
2022/01/26 00:16:34;;;;;;;;;45.00;40.25;;;;;;;;5117878;27;46223;-74
2022/01/26 00:19:01;;;;;;;;;44.00;35.25;;;;;;;;5118307;27;45411;-74
2022/01/26 00:21:32;;;;;;;;;45.50;38.25;;;;;;;;5118645;27;45297;-74
2022/01/26 00:29:21;;;;;;;;;42.75;36.00;;;;;;;;5116831;27;45433;-75
2022/01/26 00:40:15;;;;;;;;;48.25;37.00;;;;;;;;5117823;27;45820;-74
2022/01/26 00:42:42;;;;;;;;;37.75;31.75;;;;;;;;5118095;27;45418;-74
2022/01/26 00:45:08;;;;;;;;;36.25;32.25;;;;;;;;5101385;27;45580;-74
2022/01/26 00:47:34;;;;;;;;;43.25;36.25;;;;;;;;5118347;27;46223;-74
2022/01/26 00:50:04;;;;;;;;;44.25;37.25;;;;;;;;5117673;27;45448;-74
2022/01/26 00:52:39;;;;;;;;;37.25;26.50;;;;;;;;5117741;27;45459;-74
2022/01/26 00:55:09;;;;;;;;;38.25;30.75;;;;;;;;5117937;27;45490;-74
2022/01/26 00:57:34;;;;;;;;;35.50;33.50;;;;;;;;5117322;27;45421;-73
2022/01/26 01:00:00;;;;;;;;;37.00;29.50;;;;;;;;5117675;27;45387;-73
2022/01/26 01:02:26;;;;;;;;;40.50;29.25;;;;;;;;5118237;27;45297;-74
2022/01/26 01:04:51;;;;;;;;;44.50;36.50;;;;;;;;5117604;27;45466;-75
2022/01/26 01:07:20;;;;;;;;;35.25;30.00;;;;;;;;5117274;27;46057;-74
2022/01/26 01:09:46;;;;;;;;;38.75;31.00;;;;;;;;5117602;27;45416;-76
2022/01/26 01:12:11;;;;;;;;;34.75;32.75;;;;;;;;5117670;27;45474;-73
2022/01/26 01:14:39;;;;;;;;;30.75;28.25;;;;;;;;5118424;27;45302;-73
2022/01/26 01:17:06;;;;;;;;;39.25;33.75;;;;;;;;5117343;27;46138;-75
2022/01/26 01:19:40;;;;;;;;;37.75;29.50;;;;;;;;5117436;27;45373;-73
2022/01/26 01:22:33;;;;;;;;;41.75;35.25;;;;;;;;5117243;27;45281;-73
2022/01/26 01:30:26;;;;;;;;;40.00;31.50;;;;;;;;5117152;27;45598;-73
2022/01/26 01:33:05;;;;;;;;;42.00;34.50;;;;;;;;5117609;27;45274;-74
2022/01/26 01:35:32;;;;;;;;;39.50;32.00;;;;;;;;5117189;27;45376;-72
2022/01/26 01:38:06;;;;;;;;;41.50;33.75;;;;;;;;5117227;27;47123;-72
2022/01/26 01:40:32;;;;;;;;;42.50;32.00;;;;;;;;5116898;27;45596;-73
2022/01/26 01:42:57;;;;;;;;;39.25;34.25;;;;;;;;5116713;27;45374;-74
2022/01/26 01:45:36;;;;;;;;;37.75;29.75;;;;;;;;5116649;27;45601;-74
2022/01/26 01:48:02;;;;;;;;;38.00;34.25;;;;;;;;5098433;27;47470;-74
2022/01/26 01:50:27;;;;;;;;;43.00;35.75;;;;;;;;5117088;27;45338;-73
2022/01/26 01:52:59;;;;;;;;;37.25;30.25;;;;;;;;5116748;27;45693;-74
2022/01/26 01:55:27;;;;;;;;;39.25;32.25;;;;;;;;5116867;27;45321;-74
2022/01/26 01:57:53;;;;;;;;;38.00;29.25;;;;;;;;5117501;27;46303;-74
2022/01/26 02:00:18;;;;;;;;;44.50;34.25;;;;;;;;5117320;27;45247;-73
2022/01/26 02:02:43;;;;;;;;;31.75;28.50;;;;;;;;5117492;27;45403;-74
2022/01/26 02:05:08;;;;;;;;;36.00;28.25;;;;;;;;5117248;27;45473;-74
2022/01/26 02:07:34;;;;;;;;;39.00;29.25;;;;;;;;5116446;27;46336;-75
2022/01/26 02:10:01;;;;;;;;;29.00;28.25;;;;;;;;5116324;27;45498;-75
2022/01/26 02:12:27;;;;;;;;;30.00;27.75;;;;;;;;5116886;27;45427;-74
2022/01/26 02:15:03;;;;;;;;;30.25;26.00;;;;;;;;5116862;27;45572;-74
2022/01/26 02:55:43;;;;;;;;;40.50;35.25;;;;;;;;5115609;27;45713;-74
2022/01/26 02:58:38;;;;;;;;;34.50;27.25;;;;;;;;5116103;27;45428;-74
2022/01/26 03:03:42;;;;;;;;;40.75;26.25;;;;;;;;5114818;27;45486;-74
2022/01/26 03:06:17;;;;;;;;;33.25;25.75;;;;;;;;5099556;27;45395;-74
2022/01/26 03:08:44;;;;;;;;;37.25;31.25;;;;;;;;5112451;27;45468;-74
2022/01/26 03:11:12;;;;;;;;;27.75;23.25;;;;;;;;5115991;27;46925;-74
2022/01/26 03:13:43;;;;;;;;;33.00;30.00;;;;;;;;5115773;27;45478;-74
2022/01/26 03:16:21;;;;;;;;;38.25;32.75;;;;;;;;5115713;27;45440;-74
2022/01/26 03:18:56;;;;;;;;;39.25;30.50;;;;;;;;5115793;27;45415;-74
2022/01/26 03:21:29;;;;;;;;;38.25;31.25;;;;;;;;5115502;27;46421;-74
2022/01/26 03:34:25;;;;;;;;;41.75;29.50;;;;;;;;5115474;27;45631;-74
2022/01/26 03:37:00;;;;;;;;;36.75;32.25;;;;;;;;5115493;27;45421;-74
2022/01/26 03:39:26;;;;;;;;;34.75;32.50;;;;;;;;5115768;27;45375;-74
2022/01/26 03:42:04;;;;;;;;;38.75;32.75;;;;;;;;5115503;27;45859;-74
2022/01/26 03:44:30;;;;;;;;;36.25;35.00;;;;;;;;5115312;27;45463;-75
2022/01/26 03:46:55;;;;;;;;;37.50;31.25;;;;;;;;5098731;27;45360;-75
2022/01/26 03:49:20;;;;;;;;;38.00;33.50;;;;;;;;5095894;27;45539;-75
2022/01/26 03:51:45;;;;;;;;;41.00;34.25;;;;;;;;5095724;27;46412;-75
2022/01/26 03:54:11;;;;;;;;;34.50;31.25;;;;;;;;5095183;27;45540;-75
2022/01/26 03:56:37;;;;;;;;;33.50;29.00;;;;;;;;5095730;27;45359;-74
2022/01/26 03:59:02;;;;;;;;;41.25;35.75;;;;;;;;5094496;27;45614;-74
2022/01/26 04:01:28;;;;;;;;;40.50;30.50;;;;;;;;5094198;27;45530;-74
2022/01/26 04:03:53;;;;;;;;;46.75;38.75;;;;;;;;5076360;27;45494;-74
2022/01/26 04:06:18;;;;;;;;;52.75;40.00;;;;;;;;5094380;27;45394;-74
2022/01/26 04:08:45;;;;;;;;;39.75;35.75;;;;;;;;5095147;27;45343;-75
2022/01/26 04:13:41;;;;;;;;;38.00;35.00;;;;;;;;5094271;27;45380;-74
2022/01/26 04:16:07;;;;;;;;;47.25;39.25;;;;;;;;5097780;27;45445;-75
2022/01/26 04:18:36;;;;;;;;;49.00;37.25;;;;;;;;5097660;27;45469;-74
2022/01/26 04:21:10;;;;;;;;;54.00;38.75;;;;;;;;5097044;27;46343;-74
2022/01/26 04:26:24;;;;;;;;;49.75;37.25;;;;;;;;5096037;27;45410;-74
2022/01/26 04:28:55;;;;;;;;;53.75;39.00;;;;;;;;5097900;27;45315;-73
2022/01/26 04:31:21;;;;;;;;;50.25;39.25;;;;;;;;5097439;27;46375;-74
2022/01/26 04:33:47;;;;;;;;;42.75;36.25;;;;;;;;5097445;27;45359;-73
2022/01/26 04:36:17;;;;;;;;;52.25;39.00;;;;;;;;5097371;27;45233;-74
2022/01/26 04:38:48;;;;;;;;;50.50;39.00;;;;;;;;5098084;27;45444;-73
2022/01/26 04:41:37;;;;;;;;;51.75;40.25;;;;;;;;5097286;27;46271;-74
2022/01/26 04:44:09;;;;;;;;;52.00;40.75;;;;;;;;5097237;27;45449;-75
2022/01/26 04:46:35;;;;;;;;;54.00;44.00;;;;;;;;5110779;27;45614;-75
2022/01/26 04:49:00;;;;;;;;;57.50;41.50;;;;;;;;5117929;27;45364;-74
2022/01/26 04:51:25;;;;;;;;;51.25;40.00;;;;;;;;5117868;27;45983;-74
2022/01/26 04:53:51;;;;;;;;;55.00;41.00;;;;;;;;5118223;27;45556;-74
2022/01/26 04:56:16;;;;;;;;;50.00;37.50;;;;;;;;5118341;27;45287;-74
2022/01/26 04:58:42;;;;;;;;;60.75;44.00;;;;;;;;5117629;27;46874;-74
2022/01/26 05:01:07;;;;;;;;;49.50;39.75;;;;;;;;5117794;27;45573;-74
2022/01/26 05:03:32;;;;;;;;;56.50;41.50;;;;;;;;5117537;27;45491;-74
2022/01/26 05:05:57;;;;;;;;;47.00;40.75;;;;;;;;5117250;27;45468;-74
2022/01/26 05:08:23;;;;;;;;;56.25;44.25;;;;;;;;5118053;27;45300;-75
2022/01/26 05:10:48;;;;;;;;;64.25;46.75;;;;;;;;5097086;27;45556;-74
2022/01/26 05:13:15;;;;;;;;;62.75;48.25;;;;;;;;5116968;27;45507;-75
2022/01/26 05:15:41;;;;;;;;;54.00;42.25;;;;;;;;5117573;27;45526;-75
2022/01/26 05:18:06;;;;;;;;;53.25;42.25;;;;;;;;5100841;27;45527;-75
2022/01/26 05:20:33;;;;;;;;;53.25;43.75;;;;;;;;5098934;27;46020;-75
2022/01/26 05:22:58;;;;;;;;;53.00;39.00;;;;;;;;5116880;27;45506;-74
2022/01/26 05:25:23;;;;;;;;;53.50;42.00;;;;;;;;5116966;27;45442;-74
2022/01/26 05:27:48;;;;;;;;;58.00;41.75;;;;;;;;5116738;27;45494;-74
2022/01/26 05:30:15;;;;;;;;;58.50;43.50;;;;;;;;5116843;27;47231;-74
2022/01/26 05:32:40;;;;;;;;;56.75;41.75;;;;;;;;5117336;27;45404;-74
2022/01/26 05:35:05;;;;;;;;;56.25;42.00;;;;;;;;5116562;27;45405;-73
2022/01/26 05:37:31;;;;;;;;;56.50;43.50;;;;;;;;5116630;27;45256;-73
2022/01/26 05:39:56;;;;;;;;;65.33;50.33;;;;;;;;5118497;27;45379;-73
2022/01/26 05:42:22;;;;;;;;;54.75;44.75;;;;;;;;5117951;27;45275;-74
2022/01/26 05:44:47;;;;;;;;;60.25;47.75;;;;;;;;5117626;27;45350;-74
2022/01/26 05:47:17;;;;;;;;;59.00;42.00;;;;;;;;5117186;27;45622;-73
2022/01/26 05:49:43;;;;;;;;;61.25;47.00;;;;;;;;5116663;27;45445;-74
2022/01/26 05:52:08;;;;;;;;;67.50;46.50;;;;;;;;5116618;27;45433;-74
2022/01/26 05:54:33;;;;;;;;;60.50;46.00;;;;;;;;5098453;27;45470;-73
2022/01/26 05:56:58;;;;;;;;;61.50;48.25;;;;;;;;5116582;27;45249;-74
2022/01/26 05:59:23;;;;;;;;;61.67;46.67;;;;;;;;5116439;27;45711;-74
2022/01/26 06:01:49;;;;;;;;;58.50;44.75;;;;;;;;5115824;27;45275;-73
2022/01/26 06:04:15;;;;;;;;;51.50;42.75;;;;;;;;5115623;27;47853;-73
2022/01/26 06:06:40;;;;;;;;;61.50;49.25;;;;;;;;5116062;27;45418;-73
2022/01/26 06:09:05;;;;;;;;;55.75;45.00;;;;;;;;5116074;27;47046;-72
2022/01/26 06:11:30;;;;;;;;;62.50;48.75;;;;;;;;5097718;27;45422;-73
2022/01/26 06:13:56;;;;;;;;;62.75;48.00;;;;;;;;5115801;27;45342;-73
2022/01/26 06:16:21;;;;;;;;;60.25;49.25;;;;;;;;5116169;27;45440;-74
2022/01/26 06:18:47;;;;;;;;;63.25;48.25;;;;;;;;5115338;27;46123;-73
2022/01/26 06:21:12;;;;;;;;;59.00;45.00;;;;;;;;5115512;27;45330;-73
2022/01/26 06:23:37;;;;;;;;;65.00;47.00;;;;;;;;5116386;27;45453;-73
2022/01/26 06:26:02;;;;;;;;;60.50;46.50;;;;;;;;5115849;27;45672;-74
2022/01/26 06:28:28;;;;;;;;;57.00;47.25;;;;;;;;5116063;27;46184;-74
2022/01/26 06:30:55;;;;;;;;;66.50;48.25;;;;;;;;5095583;27;45366;-73
2022/01/26 06:33:21;;;;;;;;;59.75;46.00;;;;;;;;5115387;27;45418;-73
2022/01/26 06:35:47;;;;;;;;;65.50;48.00;;;;;;;;5115819;27;45495;-74
2022/01/26 06:38:13;;;;;;;;;69.33;52.67;;;;;;;;5115775;27;45443;-73
2022/01/26 06:40:39;;;;;;;;;62.67;48.00;;;;;;;;5114843;27;45443;-72
2022/01/26 06:43:10;;;;;;;;;58.75;47.00;;;;;;;;5115280;27;45329;-72
2022/01/26 06:45:41;;;;;;;;;59.67;48.33;;;;;;;;5114819;27;45400;-72
2022/01/26 06:50:40;;;;;;;;;63.25;47.25;;;;;;;;5111496;27;45315;-72
2022/01/26 06:53:05;;;;;;;;;59.00;47.50;;;;;;;;5115276;27;45598;-72
2022/01/26 06:55:31;;;;;;;;;60.75;45.00;;;;;;;;5114813;27;45220;-73
2022/01/26 06:57:56;;;;;;;;;53.75;43.75;;;;;;;;5114952;27;46318;-73
2022/01/26 07:00:21;;;;;;;;;65.00;50.25;;;;;;;;5115015;27;45432;-78
2022/01/26 07:02:47;;;;;;;;;64.33;52.00;;;;;;;;5100783;27;45306;-78
2022/01/26 07:05:12;;;;;;;;;67.00;48.33;;;;;;;;5118415;27;45334;-77
2022/01/26 07:07:38;;;;;;;;;67.33;51.67;;;;;;;;5114929;27;47063;-76
2022/01/26 07:10:04;;;;;;;;;61.75;49.00;;;;;;;;5115343;27;45238;-77
2022/01/26 07:12:29;;;;;;;;;66.33;49.33;;;;;;;;5115498;27;45255;-77
2022/01/26 07:22:50;;;;;;;;;60.00;46.50;;;;;;;;5114778;27;45490;-76
2022/01/26 07:25:16;;;;;;;;;61.75;49.25;;;;;;;;5114788;27;45313;-78
2022/01/26 07:27:42;;;;;;;;;60.75;44.50;;;;;;;;5115297;27;46220;-78
2022/01/26 07:30:07;;;;;;;;;70.67;49.00;;;;;;;;5116161;27;45290;-78
2022/01/26 07:32:35;;;;;;;;;59.75;48.00;;;;;;;;5125967;27;45383;-77
2022/01/26 07:35:00;;;;;;;;;63.50;50.75;;;;;;;;5127364;27;45411;-78
2022/01/26 07:37:26;;;;;;;;;65.25;50.00;;;;;;;;5120494;27;45548;-77
2022/01/26 07:40:04;;;;;;;;;60.50;48.50;;;;;;;;5116393;27;45522;-78
2022/01/26 07:42:29;;;;;;;;;66.00;46.75;;;;;;;;5115466;27;45443;-78
2022/01/26 07:44:54;;;;;;;;;62.50;45.25;;;;;;;;5115444;27;45357;-75
2022/01/26 07:47:19;;;;;;;;;57.00;46.50;;;;;;;;5112091;27;46252;-74
2022/01/26 07:49:45;;;;;;;;;65.00;52.00;;;;;;;;5115511;27;45466;-74
2022/01/26 07:52:10;;;;;;;;;63.50;52.25;;;;;;;;5116757;27;45395;-72
2022/01/26 07:54:35;;;;;;;;;66.00;52.67;;;;;;;;5117690;27;45404;-77
2022/01/26 07:57:01;;;;;;;;;66.00;50.00;;;;;;;;5116494;27;46121;-74
2022/01/26 07:59:27;;;;;;;;;72.00;55.00;;;;;;;;5117248;27;45427;-74
2022/01/26 08:01:52;;;;;;;;;67.25;50.50;;;;;;;;5117284;27;45431;-74
2022/01/26 08:04:17;;;;;;;;;58.75;46.25;;;;;;;;5117117;27;45245;-75
2022/01/26 08:06:44;;;;;;;;;62.25;43.00;;;;;;;;5117336;27;45598;-74
2022/01/26 08:09:09;;;;;;;;;67.50;47.00;;;;;;;;5117886;27;45536;-75
2022/01/26 08:11:35;;;;;;;;;56.75;42.50;;;;;;;;5118357;27;45366;-75
2022/01/26 08:14:00;;;;;;;;;60.50;47.75;;;;;;;;5116280;27;45609;-73
2022/01/26 08:16:25;;;;;;;;;75.00;55.00;;;;;;;;5115209;27;46542;-74
2022/01/26 08:18:50;;;;;;;;;70.00;52.33;;;;;;;;5122661;27;45513;-74
2022/01/26 08:21:16;;;;;;;;;61.75;47.00;;;;;;;;5116831;27;45408;-75
2022/01/26 08:23:43;;;;;;;;;59.75;46.50;;;;;;;;5115810;27;45365;-75
2022/01/26 08:26:09;;;;;;;;;58.25;45.75;;;;;;;;5115665;27;46294;-74
2022/01/26 08:28:38;;;;;;;;;60.50;46.75;;;;;;;;5115020;27;45443;-75
2022/01/26 08:31:03;;;;;;;;;66.25;48.75;;;;;;;;5115243;27;45430;-73
2022/01/26 08:33:29;;;;;;;;;62.75;46.00;;;;;;;;5116726;27;45343;-74
2022/01/26 08:35:54;;;;;;;;;62.25;49.50;;;;;;;;5116847;27;46747;-75
2022/01/26 08:38:19;;;;;;;;;63.33;50.00;;;;;;;;5098889;27;45381;-75
2022/01/26 08:40:46;;;;;;;;;66.75;52.00;;;;;;;;5116684;27;45296;-74
2022/01/26 08:43:12;;;;;;;;;68.50;52.00;;;;;;;;5116639;27;45424;-75
2022/01/26 08:45:37;;;;;;;;;55.67;48.00;;;;;;;;5117457;27;46223;-76
2022/01/26 08:48:02;;;;;;;;;56.75;43.00;;;;;;;;5116823;27;45687;-74
2022/01/26 08:50:28;;;;;;;;;54.50;43.75;;;;;;;;5117545;27;45352;-74
2022/01/26 08:52:53;;;;;;;;;60.25;49.50;;;;;;;;5116241;27;45304;-75
2022/01/26 08:55:18;;;;;;;;;56.00;45.75;;;;;;;;5116277;27;45669;-75
2022/01/26 08:57:44;;;;;;;;;60.75;43.50;;;;;;;;5115741;27;45249;-75
2022/01/26 09:00:09;;;;;;;;;62.75;48.25;;;;;;;;5115792;27;45258;-76
2022/01/26 09:02:35;;;;;;;;;63.75;46.00;;;;;;;;5115768;27;45376;-75
2022/01/26 09:05:01;;;;;;;;;58.00;41.75;;;;;;;;5115777;27;45640;-77
2022/01/26 09:07:26;;;;;;;;;62.75;49.25;;;;;;;;5116235;27;45513;-74
2022/01/26 09:09:54;;;;;;;;;58.25;44.00;;;;;;;;5115662;27;45344;-76
2022/01/26 09:12:21;;;;;;;;;48.50;40.00;;;;;;;;5114986;27;45497;-75
2022/01/26 09:14:47;;;;;;;;;61.00;49.50;;;;;;;;5115585;27;46171;-76
2022/01/26 09:17:12;;;;;;;;;59.00;47.00;;;;;;;;5116622;27;45405;-75
2022/01/26 09:19:38;;;;;;;;;57.75;44.75;;;;;;;;5116576;27;45432;-75
2022/01/26 09:22:08;;;;;;;;;61.00;46.50;;;;;;;;5117213;27;45585;-75
2022/01/26 09:24:34;;;;;;;;;60.25;46.75;;;;;;;;5119679;27;46328;-75
2022/01/26 09:27:00;;;;;;;;;65.00;49.00;;;;;;;;5117530;27;45322;-76
2022/01/26 09:29:26;;;;;;;;;59.75;45.75;;;;;;;;5117547;27;45297;-75
2022/01/26 09:31:51;;;;;;;;;60.50;46.25;;;;;;;;5116536;27;45494;-75
2022/01/26 09:34:17;;;;;;;;;60.75;48.25;;;;;;;;5117318;27;46279;-75
2022/01/26 09:36:43;;;;;;;;;61.00;46.00;;;;;;;;5116113;27;45363;-75
2022/01/26 09:39:08;;;;;;;;;58.25;44.00;;;;;;;;5081395;27;45384;-76
2022/01/26 09:41:34;;;;;;;;;63.00;48.50;;;;;;;;5116019;27;45446;-75
2022/01/26 09:44:02;;;;;;;;;61.50;47.50;;;;;;;;5116159;27;47137;-75
2022/01/26 09:46:28;;;;;;;;;66.25;46.25;;;;;;;;5115314;27;45393;-76
2022/01/26 09:48:53;;;;;;;;;65.00;48.00;;;;;;;;5095561;27;45470;-76
2022/01/26 09:51:20;;;;;;;;;69.50;50.25;;;;;;;;5115701;27;45351;-75
2022/01/26 09:53:45;;;;;;;;;60.50;48.00;;;;;;;;5114958;27;47011;-75
2022/01/26 09:56:10;;;;;;;;;59.50;47.25;;;;;;;;5115258;27;45471;-75
2022/01/26 09:58:36;;;;;;;;;56.00;44.75;;;;;;;;5114759;27;45726;-75
2022/01/26 10:01:03;;;;;;;;;60.25;47.00;;;;;;;;5114946;27;45298;-74
2022/01/26 10:03:34;;;;;;;;;61.25;48.75;;;;;;;;5114697;27;45566;-75
2022/01/26 10:06:01;;;;;;;;;60.50;47.50;;;;;;;;5115668;27;45464;-76
2022/01/26 10:09:15;;;;;;;;;60.25;46.75;;;;;;;;5116123;27;45320;-75
2022/01/26 10:17:24;;;;;;;;;60.50;46.75;;;;;;;;5114993;27;45551;-74
2022/01/26 10:19:59;;;;;;;;;60.75;45.25;;;;;;;;5115381;27;45410;-75
2022/01/26 10:22:31;;;;;;;;;62.00;47.25;;;;;;;;5114254;27;45360;-76
2022/01/26 10:25:02;;;;;;;;;61.00;48.25;;;;;;;;5114033;27;46464;-75
2022/01/26 10:27:44;;;;;;;;;64.25;51.75;;;;;;;;5114956;27;45469;-75
2022/01/26 10:30:12;;;;;;;;;59.00;47.75;;;;;;;;5098851;27;45424;-75
2022/01/26 10:32:37;;;;;;;;;56.75;45.75;;;;;;;;5116296;27;45452;-75
2022/01/26 10:35:04;;;;;;;;;60.50;48.00;;;;;;;;5114154;27;46282;-75
2022/01/26 10:37:29;;;;;;;;;62.25;50.00;;;;;;;;5113527;27;45455;-72
2022/01/26 10:40:08;;;;;;;;;64.00;49.50;;;;;;;;5114446;27;45333;-74
2022/01/26 10:42:33;;;;;;;;;61.75;48.50;;;;;;;;5114363;27;46401;-75
2022/01/26 10:45:19;;;;;;;;;68.75;51.00;;;;;;;;5114235;27;45273;-75
2022/01/26 10:47:47;;;;;;;;;64.75;49.00;;;;;;;;5110684;27;45223;-73
2022/01/26 10:53:08;;;;;;;;;68.00;49.25;;;;;;;;5113722;27;45501;-75
2022/01/26 10:55:35;;;;;;;;;65.25;49.25;;;;;;;;5114266;27;47269;-76
2022/01/26 10:58:00;;;;;;;;;57.00;45.50;;;;;;;;5114334;27;45791;-74
2022/01/26 11:00:26;;;;;;;;;61.25;46.25;;;;;;;;5114679;27;45416;-75
2022/01/26 11:02:57;;;;;;;;;66.50;51.25;;;;;;;;5114129;27;45412;-75
2022/01/26 11:05:23;;;;;;;;;60.00;47.75;;;;;;;;5111997;27;47248;-75
2022/01/26 11:07:48;;;;;;;;;60.75;47.50;;;;;;;;5113321;27;45911;-74
2022/01/26 11:10:14;;;;;;;;;60.75;47.50;;;;;;;;5114040;27;45523;-74
2022/01/26 11:12:41;;;;;;;;;52.50;42.75;;;;;;;;5110763;27;45413;-75
2022/01/26 11:15:06;;;;;;;;;64.25;49.50;;;;;;;;5113850;27;46226;-73
2022/01/26 11:17:34;;;;;;;;;65.00;47.75;;;;;;;;5115076;27;45380;-73
2022/01/26 11:20:02;;;;;;;;;71.75;52.50;;;;;;;;5113946;27;45311;-73
2022/01/26 11:22:32;;;;;;;;;67.50;52.25;;;;;;;;5113252;27;45204;-73
2022/01/26 11:25:10;;;;;;;;;63.00;48.00;;;;;;;;5111948;27;47108;-74
2022/01/26 11:27:36;;;;;;;;;63.75;50.00;;;;;;;;5113220;27;45300;-75
2022/01/26 11:30:14;;;;;;;;;64.33;51.33;;;;;;;;5113848;27;45659;-74
2022/01/26 11:32:48;;;;;;;;;66.00;47.50;;;;;;;;5110083;27;45375;-73
2022/01/26 11:35:13;;;;;;;;;59.75;49.75;;;;;;;;5094892;27;46778;-73
2022/01/26 11:37:49;;;;;;;;;68.75;52.25;;;;;;;;5114129;27;45327;-73
2022/01/26 11:46:06;;;;;;;;;62.25;48.25;;;;;;;;5114220;27;45896;-74
2022/01/26 11:48:31;;;;;;;;;52.75;41.50;;;;;;;;5114139;27;45406;-73
2022/01/26 11:51:00;;;;;;;;;69.33;52.67;;;;;;;;5112887;27;45421;-74
2022/01/26 11:53:27;;;;;;;;;64.75;51.50;;;;;;;;5113315;27;45451;-75
2022/01/26 11:56:00;;;;;;;;;60.50;45.25;;;;;;;;5112950;27;46129;-73
2022/01/26 11:58:36;;;;;;;;;61.00;48.50;;;;;;;;5113927;27;45478;-74
2022/01/26 12:03:44;;;;;;;;;57.00;43.75;;;;;;;;5115977;27;45458;-74
2022/01/26 12:06:18;;;;;;;;;59.50;46.50;;;;;;;;5096010;27;47244;-75
2022/01/26 12:08:43;;;;;;;;;63.25;48.75;;;;;;;;5109474;27;45324;-75
2022/01/26 12:11:13;;;;;;;;;53.00;42.00;;;;;;;;5112982;27;45367;-75
2022/01/26 12:13:39;;;;;;;;;60.25;47.25;;;;;;;;5112744;27;45515;-73
2022/01/26 12:16:14;;;;;;;;;63.25;51.00;;;;;;;;5113061;27;45427;-74
2022/01/26 12:18:46;;;;;;;;;53.50;42.50;;;;;;;;5112681;27;45327;-75
2022/01/26 12:35:09;;;;;;;;;66.00;51.00;;;;;;;;5112559;27;45388;-72
2022/01/26 12:37:54;;;;;;;;;57.75;46.50;;;;;;;;5116191;27;46529;-73
2022/01/26 12:43:10;;;;;;;;;64.50;51.25;;;;;;;;5117641;27;45220;-75
2022/01/26 12:45:35;;;;;;;;;74.00;55.00;;;;;;;;5116425;27;45330;-76
2022/01/26 12:48:01;;;;;;;;;75.00;53.00;;;;;;;;5116267;27;46825;-74
2022/01/26 12:50:27;;;;;;;;;63.50;51.75;;;;;;;;5117233;27;45222;-73
2022/01/26 12:52:54;;;;;;;;;62.25;48.50;;;;;;;;5116084;27;45397;-75
2022/01/26 12:55:24;;;;;;;;;60.50;47.25;;;;;;;;5116182;27;45455;-74
2022/01/26 12:57:49;;;;;;;;;65.75;50.00;;;;;;;;5115652;27;45504;-74
2022/01/26 13:00:15;;;;;;;;;64.00;47.75;;;;;;;;5115159;27;45562;-76
2022/01/26 13:02:41;;;;;;;;;69.25;51.25;;;;;;;;5114609;27;45455;-76
2022/01/26 13:05:06;;;;;;;;;62.00;48.50;;;;;;;;5115400;27;45506;-75
2022/01/26 13:07:31;;;;;;;;;67.50;49.50;;;;;;;;5114725;27;45473;-76
2022/01/26 13:09:57;;;;;;;;;55.00;44.00;;;;;;;;5095018;27;45319;-78
2022/01/26 13:12:32;;;;;;;;;60.25;48.25;;;;;;;;5114772;27;45436;-75
2022/01/26 13:15:41;;;;;;;;;59.25;45.75;;;;;;;;5115047;27;45472;-78
2022/01/26 13:18:03;;;;;;;;;58.75;46.25;;;;;;;;5109941;27;47704;-75
2022/01/26 13:20:43;;;;;;;;;65.25;50.50;;;;;;;;5114181;27;45570;-78
2022/01/26 13:23:25;;;;;;;;;34.25;30.75;;;;;;;;5115926;27;45385;-77
2022/01/26 13:29:14;;;;;;;;;59.75;47.25;;;;;;;;5097277;27;46665;-77
2022/01/26 13:37:58;;;;;;;;;56.00;43.00;;;;;;;;5026791;28;45459;-77
2022/01/26 13:45:59;;;;;;;;;55.25;42.75;;;;;;;;5029020;28;46607;-78
2022/01/26 13:48:50;;;;;;;;;52.25;40.75;;;;;;;;5029756;28;45429;-77
2022/01/26 13:51:21;;;;;;;;;54.50;42.25;;;;;;;;5030761;28;46201;-78
2022/01/26 13:53:58;;;;;;;;;57.50;45.25;;;;;;;;5022376;28;45210;-77
2022/01/26 13:56:39;;;;;;;;;55.75;45.00;;;;;;;;5029531;28;45707;-77
2022/01/26 14:01:33;;;;;;;;;19.25;12.25;;;;;;;;5024852;28;46078;-78
2022/01/26 14:04:03;;;;;;;;;60.75;46.75;;;;;;;;5031252;28;45294;-79
2022/01/26 14:06:28;;;;;;;;;59.50;47.00;;;;;;;;5030200;28;45525;-78
2022/01/26 14:08:54;;;;;;;;;62.00;47.00;;;;;;;;5030261;28;45367;-77
2022/01/26 14:11:19;;;;;;;;;59.50;46.75;;;;;;;;5110712;27;45254;-78
2022/01/26 14:13:45;;;;;;;;;65.75;47.75;;;;;;;;5114941;27;45491;-79
2022/01/26 14:16:11;;;;;;;;;60.75;47.00;;;;;;;;5117697;27;45235;-78
2022/01/26 14:18:47;;;;;;;;;59.00;46.25;;;;;;;;5114659;27;45560;-78
2022/01/26 14:21:27;;;;;;;;;56.50;47.00;;;;;;;;5098058;27;46182;-77
2022/01/26 14:24:00;;;;;;;;;63.25;49.00;;;;;;;;5114043;27;45681;-78
2022/01/26 14:26:30;;;;;;;;;64.25;47.00;;;;;;;;5113264;27;45319;-76
2022/01/26 14:28:55;;;;;;;;;56.25;45.50;;;;;;;;5114373;27;45484;-78
2022/01/26 14:31:29;;;;;;;;;59.75;44.25;;;;;;;;5113248;27;47031;-78
2022/01/26 15:29:57;;;;;;;;;54.75;40.00;;;;;;;;5049941;28;45454;-77
2022/01/26 15:50:21;;;;;;;;;57.50;43.75;;;;;;;;5030768;28;45370;-78
2022/01/26 15:53:04;;;;;;;;;56.50;43.50;;;;;;;;5030006;28;45490;-78
2022/01/26 15:58:30;;;;;;;;;59.75;43.50;;;;;;;;5028703;28;45388;-79
2022/01/26 16:06:45;;;;;;;;;62.50;45.75;;;;;;;;5026626;28;45438;-65
2022/01/26 16:20:25;;;;;;;;;47.25;40.25;;;;;;;;5116039;27;45855;-65
2022/01/26 16:52:19;;;;;;;;;55.75;42.50;;;;;;;;5071813;27;45495;-65
2022/01/26 17:47:03;;;;;;;;;69.50;51.00;;;;;;;;5114661;27;45393;-65
2022/01/26 18:07:15;;;;;;;;;66.75;49.00;;;;;;;;5111447;27;45280;-65
2022/01/26 18:33:18;;;;;;;;;66.25;51.25;;;;;;;;5097504;27;45386;-63
2022/01/26 18:49:20;;;;;;;;;60.75;47.00;;;;;;;;5113285;27;45628;-64
2022/01/26 18:51:52;;;;;;;;;59.25;43.25;;;;;;;;5102634;27;45567;-66
2022/01/26 18:54:18;;;;;;;;;72.00;51.25;;;;;;;;5098983;27;45345;-64
2022/01/26 18:56:46;;;;;;;;;61.25;48.50;;;;;;;;5115086;27;45429;-66
2022/01/26 18:59:11;;;;;;;;;68.25;52.75;;;;;;;;5102687;27;45373;-66
2022/01/26 19:01:36;;;;;;;;;71.00;50.75;;;;;;;;5102665;27;47005;-66
2022/01/26 19:04:02;;;;;;;;;56.50;44.00;;;;;;;;5102616;27;45501;-64
2022/01/26 19:06:27;;;;;;;;;64.75;50.50;;;;;;;;5100053;27;45476;-67
2022/01/26 19:08:52;;;;;;;;;62.25;47.25;;;;;;;;5098232;27;45305;-64
2022/01/26 19:11:20;;;;;;;;;59.75;46.75;;;;;;;;5101376;27;46098;-65
2022/01/26 19:13:47;;;;;;;;;58.25;46.75;;;;;;;;5102334;27;45399;-65
2022/01/26 19:16:26;;;;;;;;;65.00;50.50;;;;;;;;5102953;27;45241;-65
2022/01/26 19:21:52;;;;;;;;;60.50;46.00;;;;;;;;5113811;27;45801;-64
2022/01/26 19:24:37;;;;;;;;;60.00;46.75;;;;;;;;5099478;27;45401;-65
2022/01/26 19:27:13;;;;;;;;;62.75;48.50;;;;;;;;5114743;27;46144;-64
2022/01/26 19:45:45;;;;;;;;;59.25;43.75;;;;;;;;5099384;27;45521;-66
2022/01/26 19:50:53;;;;;;;;;56.75;46.50;;;;;;;;5118274;27;45342;-65
2022/01/26 19:53:18;;;;;;;;;65.50;49.25;;;;;;;;5118358;27;47173;-65
2022/01/26 19:55:44;;;;;;;;;67.00;49.75;;;;;;;;5117982;27;45430;-66
2022/01/26 19:58:09;;;;;;;;;65.00;47.25;;;;;;;;5117181;27;45472;-66
2022/01/26 20:00:35;;;;;;;;;56.00;44.00;;;;;;;;5131259;27;45506;-66
2022/01/26 20:03:00;;;;;;;;;64.00;49.25;;;;;;;;5107735;27;48407;-65
2022/01/26 20:05:27;;;;;;;;;62.50;48.00;;;;;;;;5119037;27;45271;-66
2022/01/26 20:07:59;;;;;;;;;65.50;49.50;;;;;;;;5126280;27;45389;-66
2022/01/26 20:10:28;;;;;;;;;66.25;49.50;;;;;;;;5129669;27;45365;-66
2022/01/26 20:13:06;;;;;;;;;62.00;46.25;;;;;;;;5129917;27;46084;-65
2022/01/26 20:15:31;;;;;;;;;59.75;47.25;;;;;;;;5117613;27;45555;-66
2022/01/26 20:17:57;;;;;;;;;64.75;48.75;;;;;;;;5124648;27;45378;-64
2022/01/26 20:20:22;;;;;;;;;62.75;49.75;;;;;;;;5117891;27;45324;-64
2022/01/26 20:22:48;;;;;;;;;63.00;48.50;;;;;;;;5117106;27;46164;-65
2022/01/26 20:25:15;;;;;;;;;59.25;44.25;;;;;;;;5112662;27;45562;-64
2022/01/26 20:27:41;;;;;;;;;66.00;50.00;;;;;;;;5117477;27;47972;-66
2022/01/26 20:30:19;;;;;;;;;64.50;50.50;;;;;;;;5131268;27;45889;-64
2022/01/26 20:32:46;;;;;;;;;66.25;51.00;;;;;;;;5113362;27;46083;-65
2022/01/26 20:35:12;;;;;;;;;72.00;49.50;;;;;;;;5121375;27;45527;-65
2022/01/26 20:37:37;;;;;;;;;63.50;45.00;;;;;;;;5121704;27;45506;-64
2022/01/26 20:40:04;;;;;;;;;59.75;48.50;;;;;;;;5116961;27;45488;-64
2022/01/26 20:42:29;;;;;;;;;68.25;51.00;;;;;;;;5117670;27;48735;-65
2022/01/26 20:44:54;;;;;;;;;67.75;49.50;;;;;;;;5117013;27;45565;-63
2022/01/26 20:47:19;;;;;;;;;63.50;50.75;;;;;;;;5117267;27;45456;-64
2022/01/26 20:49:45;;;;;;;;;61.75;49.00;;;;;;;;5116223;27;45555;-64
2022/01/26 20:52:10;;;;;;;;;59.00;46.75;;;;;;;;5117196;27;45970;-64
2022/01/26 20:54:35;;;;;;;;;64.75;48.25;;;;;;;;5117552;27;45431;-63
2022/01/26 20:57:00;;;;;;;;;61.50;47.25;;;;;;;;5116874;27;45585;-66